Time;durP1;ratioP1;P1;durP2;ratioP2;P2;SDS_P1;SDS_P2;PMS_P1;PMS_P2;Temp;Humidity;BMP_temperature;BMP_pressure;BME280_temperature;BME280_humidity;BME280_pressure;Samples;Min_cycle;Max_cycle;Signal;HPM_P1;HPM_P2
2022/06/09 00:00:41;;;;;;;;;;;14.80;99.90;;;;;;5067276;28;19956;-67
2022/06/09 00:03:10;;;;;;;;;;;14.80;99.90;;;;;;5066981;28;19971;-67
2022/06/09 00:05:37;;;;;;;;;;;14.80;99.90;;;;;;5066951;28;19960;-67
2022/06/09 00:08:05;;;;;;;;;;;14.80;99.90;;;;;;5066955;28;19952;-67
2022/06/09 00:10:35;;;;;;;;;;;14.80;99.90;;;;;;5067057;28;19963;-67
2022/06/09 00:13:01;;;;;;;;;;;14.80;99.90;;;;;;5067026;28;19921;-67
2022/06/09 00:15:28;;;;;;;;;;;14.90;99.90;;;;;;5066662;28;20052;-67
2022/06/09 00:17:55;;;;;;;;;;;14.70;99.90;;;;;;5066514;28;19956;-68
2022/06/09 00:20:22;;;;;;;;;;;14.70;99.90;;;;;;5066864;28;19963;-68
2022/06/09 00:22:49;;;;;;;;;;;14.70;99.90;;;;;;5066906;28;19921;-68
2022/06/09 00:25:15;;;;;;;;;;;14.70;99.90;;;;;;5066300;28;19983;-68
2022/06/09 00:27:43;;;;;;;;;;;14.70;99.90;;;;;;5066728;28;19967;-68
2022/06/09 00:30:11;;;;;;;;;;;14.60;99.90;;;;;;5066519;28;19927;-68
2022/06/09 00:32:38;;;;;;;;;;;14.60;99.90;;;;;;5066450;28;19987;-67
2022/06/09 00:35:04;;;;;;;;;;;14.50;99.90;;;;;;5066286;28;20180;-67
2022/06/09 00:37:31;;;;;;;;;;;14.60;99.90;;;;;;5066454;28;19987;-67
2022/06/09 00:39:59;;;;;;;;;;;14.50;99.90;;;;;;5065811;28;19944;-67
2022/06/09 00:42:25;;;;;;;;;;;14.50;99.90;;;;;;5066445;28;19921;-67
2022/06/09 00:44:53;;;;;;;;;;;14.50;99.90;;;;;;5065874;28;19921;-67
2022/06/09 00:47:23;;;;;;;;;;;14.50;99.90;;;;;;5066205;28;19988;-67
2022/06/09 00:49:54;;;;;;;;;;;14.50;99.90;;;;;;5065576;28;19975;-68
2022/06/09 00:52:21;;;;;;;;;;;14.50;99.90;;;;;;5066180;28;19921;-68
2022/06/09 00:54:49;;;;;;;;;;;14.60;99.90;;;;;;5065023;28;19983;-67
2022/06/09 00:57:17;;;;;;;;;;;14.60;99.90;;;;;;5048243;28;19959;-67
2022/06/09 00:59:46;;;;;;;;;;;14.60;99.90;;;;;;5064820;28;19921;-67
2022/06/09 01:02:16;;;;;;;;;;;14.60;99.90;;;;;;5065154;28;20104;-68
2022/06/09 01:04:43;;;;;;;;;;;14.60;99.90;;;;;;5064588;28;19959;-68
2022/06/09 01:07:12;;;;;;;;;;;14.60;99.90;;;;;;5064337;28;20279;-67
2022/06/09 01:09:39;;;;;;;;;;;14.60;99.90;;;;;;5063476;28;19921;-68
2022/06/09 01:12:21;;;;;;;;;;;14.60;99.90;;;;;;5064590;28;20196;-67
2022/06/09 01:14:48;;;;;;;;;;;14.60;99.90;;;;;;5064284;28;19983;-67
2022/06/09 01:17:18;;;;;;;;;;;14.60;99.90;;;;;;5064505;28;19944;-67
2022/06/09 01:19:57;;;;;;;;;;;14.60;99.90;;;;;;5064575;28;19953;-67
2022/06/09 01:22:27;;;;;;;;;;;14.60;99.90;;;;;;5064502;28;19920;-68
2022/06/09 01:25:06;;;;;;;;;;;14.50;99.90;;;;;;5064354;28;20224;-68
2022/06/09 01:27:54;;;;;;;;;;;14.60;99.90;;;;;;5064147;28;20176;-68
2022/06/09 01:30:22;;;;;;;;;;;14.60;99.90;;;;;;5064521;28;19921;-67
2022/06/09 01:32:55;;;;;;;;;;;14.60;99.90;;;;;;5064153;28;20232;-67
2022/06/09 01:35:24;;;;;;;;;;;14.60;99.90;;;;;;5063725;28;19955;-68
2022/06/09 01:37:53;;;;;;;;;;;14.50;99.90;;;;;;5064484;28;20116;-67
2022/06/09 01:40:20;;;;;;;;;;;14.50;99.90;;;;;;5063956;28;20232;-68
2022/06/09 01:42:48;;;;;;;;;;;14.50;99.90;;;;;;5064320;28;20124;-67
2022/06/09 01:45:16;;;;;;;;;;;14.50;99.90;;;;;;5063363;28;19988;-67
2022/06/09 01:47:45;;;;;;;;;;;14.50;99.90;;;;;;5064306;28;19956;-67
2022/06/09 01:50:17;;;;;;;;;;;14.50;99.90;;;;;;5063485;28;19992;-68
2022/06/09 01:52:44;;;;;;;;;;;14.50;99.90;;;;;;5064510;28;20050;-68
2022/06/09 01:55:13;;;;;;;;;;;14.50;99.90;;;;;;4995765;28;1942482;-68
2022/06/09 01:57:41;;;;;;;;;;;14.50;99.90;;;;;;5064948;28;19921;-68
2022/06/09 02:00:10;;;;;;;;;;;14.40;99.90;;;;;;5065186;28;20204;-67
2022/06/09 02:02:38;;;;;;;;;;;14.30;99.90;;;;;;5065018;28;19921;-68
2022/06/09 02:05:06;;;;;;;;;;;14.30;99.90;;;;;;5064490;28;19920;-67
2022/06/09 02:07:36;;;;;;;;;;;14.30;99.90;;;;;;5064649;28;19956;-67
2022/06/09 02:10:14;;;;;;;;;;;14.30;99.90;;;;;;5064820;28;19921;-67
2022/06/09 02:12:41;;;;;;;;;;;14.30;99.90;;;;;;5064544;28;19948;-67
2022/06/09 02:15:09;;;;;;;;;;;14.30;99.90;;;;;;5064412;28;19984;-68
2022/06/09 02:17:42;;;;;;;;;;;14.30;99.90;;;;;;5064512;28;19948;-67
2022/06/09 02:20:09;;;;;;;;;;;14.20;99.90;;;;;;5063565;28;19928;-68
2022/06/09 02:22:37;;;;;;;;;;;14.20;99.90;;;;;;5064442;28;20204;-68
2022/06/09 02:25:04;;;;;;;;;;;14.20;99.90;;;;;;5064035;28;19952;-68
2022/06/09 02:27:30;;;;;;;;;;;14.20;99.90;;;;;;5064367;28;19970;-67
2022/06/09 02:29:57;;;;;;;;;;;14.10;99.90;;;;;;5064317;28;20208;-67
2022/06/09 02:32:24;;;;;;;;;;;14.10;99.90;;;;;;5064367;28;19959;-67
2022/06/09 02:34:51;;;;;;;;;;;14.10;99.90;;;;;;5064038;28;19955;-67
2022/06/09 02:37:17;;;;;;;;;;;14.10;99.90;;;;;;5063876;28;19924;-67
2022/06/09 02:39:45;;;;;;;;;;;14.10;99.90;;;;;;5064185;28;20234;-67
2022/06/09 02:42:12;;;;;;;;;;;14.00;99.90;;;;;;5064275;28;19952;-67
2022/06/09 02:44:39;;;;;;;;;;;14.00;99.90;;;;;;5063895;28;19948;-67
2022/06/09 02:47:05;;;;;;;;;;;14.00;99.90;;;;;;5063821;28;19966;-68
2022/06/09 02:49:32;;;;;;;;;;;14.00;99.90;;;;;;5063454;28;19928;-67
2022/06/09 02:51:59;;;;;;;;;;;14.00;99.90;;;;;;5063872;28;19921;-67
2022/06/09 02:54:26;;;;;;;;;;;14.00;99.90;;;;;;5063585;28;19920;-67
2022/06/09 02:56:54;;;;;;;;;;;14.00;99.90;;;;;;5063524;28;19921;-67
2022/06/09 02:59:20;;;;;;;;;;;14.00;99.90;;;;;;5063922;28;19927;-67
2022/06/09 03:01:47;;;;;;;;;;;13.90;99.90;;;;;;5063411;28;19929;-67
2022/06/09 03:04:14;;;;;;;;;;;13.90;99.90;;;;;;5063052;28;19928;-68
2022/06/09 03:06:40;;;;;;;;;;;13.90;99.90;;;;;;5063305;28;19960;-67
2022/06/09 03:09:07;;;;;;;;;;;13.90;99.90;;;;;;5063750;28;19956;-68
2022/06/09 03:11:34;;;;;;;;;;;13.90;99.90;;;;;;5063439;28;19920;-67
2022/06/09 03:14:02;;;;;;;;;;;13.90;99.90;;;;;;5063373;28;19948;-67
2022/06/09 03:16:28;;;;;;;;;;;13.90;99.90;;;;;;5062671;28;19980;-68
2022/06/09 03:18:55;;;;;;;;;;;13.90;99.90;;;;;;5063440;28;19920;-68
2022/06/09 03:21:22;;;;;;;;;;;13.80;99.90;;;;;;5063151;28;19952;-67
2022/06/09 03:23:50;;;;;;;;;;;13.80;99.90;;;;;;5063408;28;19921;-68
2022/06/09 03:26:16;;;;;;;;;;;13.80;99.90;;;;;;5062954;28;19995;-68
2022/06/09 03:28:43;;;;;;;;;;;13.80;99.90;;;;;;5063411;28;19952;-67
2022/06/09 03:31:11;;;;;;;;;;;13.80;99.90;;;;;;5062434;28;19921;-66
2022/06/09 03:33:38;;;;;;;;;;;13.80;99.90;;;;;;5063405;28;19959;-67
2022/06/09 03:36:05;;;;;;;;;;;13.80;99.90;;;;;;5063224;28;19925;-67
2022/06/09 03:38:32;;;;;;;;;;;13.80;99.90;;;;;;5063506;28;20152;-67
2022/06/09 03:40:58;;;;;;;;;;;13.80;99.90;;;;;;5063251;28;20128;-67
2022/06/09 03:43:25;;;;;;;;;;;13.80;99.90;;;;;;5063052;28;19948;-67
2022/06/09 03:45:52;;;;;;;;;;;13.80;99.90;;;;;;5062882;28;19928;-67
2022/06/09 03:48:20;;;;;;;;;;;13.80;99.90;;;;;;5063018;28;20093;-68
2022/06/09 03:50:47;;;;;;;;;;;13.80;99.90;;;;;;5062912;28;20112;-67
2022/06/09 03:53:13;;;;;;;;;;;13.80;99.90;;;;;;5062938;28;20205;-67
2022/06/09 03:55:40;;;;;;;;;;;13.90;99.90;;;;;;5062907;28;20139;-68
2022/06/09 03:58:07;;;;;;;;;;;13.90;99.90;;;;;;5063046;28;19952;-67
2022/06/09 04:00:33;;;;;;;;;;;13.90;99.90;;;;;;5062988;28;19992;-68
2022/06/09 04:03:00;;;;;;;;;;;13.90;99.90;;;;;;5062906;28;19987;-67
2022/06/09 04:05:28;;;;;;;;;;;13.90;99.90;;;;;;5062547;28;19952;-67
2022/06/09 04:07:55;;;;;;;;;;;13.90;99.90;;;;;;5063034;28;19921;-68
2022/06/09 04:10:23;;;;;;;;;;;13.80;99.90;;;;;;5062844;28;19948;-68
2022/06/09 04:12:51;;;;;;;;;;;13.80;99.90;;;;;;5062706;28;19921;-67
2022/06/09 04:15:18;;;;;;;;;;;13.80;99.90;;;;;;5062553;28;20219;-67
2022/06/09 04:17:45;;;;;;;;;;;13.80;99.90;;;;;;5062779;28;20204;-68
2022/06/09 04:20:12;;;;;;;;;;;13.90;99.90;;;;;;5062655;28;20215;-67
2022/06/09 04:22:40;;;;;;;;;;;13.90;99.90;;;;;;5062789;28;20166;-68
2022/06/09 04:25:07;;;;;;;;;;;13.90;99.90;;;;;;5062771;28;19928;-68
2022/06/09 04:27:34;;;;;;;;;;;13.90;99.90;;;;;;5062516;28;19979;-68
2022/06/09 04:30:00;;;;;;;;;;;14.00;99.90;;;;;;5062476;28;19921;-67
2022/06/09 04:32:27;;;;;;;;;;;14.00;99.90;;;;;;5063073;28;19959;-67
2022/06/09 04:34:54;;;;;;;;;;;14.00;99.90;;;;;;5049558;28;20180;-68
2022/06/09 04:37:20;;;;;;;;;;;14.10;99.90;;;;;;5042423;28;19949;-67
2022/06/09 04:39:49;;;;;;;;;;;14.10;99.90;;;;;;5051121;28;19921;-68
2022/06/09 04:42:16;;;;;;;;;;;14.10;99.90;;;;;;5062671;28;19921;-67
2022/06/09 04:44:42;;;;;;;;;;;14.10;99.90;;;;;;5066064;28;19929;-67
2022/06/09 04:47:09;;;;;;;;;;;14.10;99.90;;;;;;5066273;28;19920;-68
2022/06/09 04:49:36;;;;;;;;;;;14.20;99.90;;;;;;5066010;28;19920;-70
2022/06/09 04:52:03;;;;;;;;;;;14.20;99.90;;;;;;5066313;28;19956;-70
2022/06/09 04:54:29;;;;;;;;;;;14.20;99.90;;;;;;5066513;28;19921;-69
2022/06/09 04:56:58;;;;;;;;;;;14.20;99.90;;;;;;5066156;28;20116;-69
2022/06/09 04:59:27;;;;;;;;;;;14.30;99.90;;;;;;5065944;28;20235;-69
2022/06/09 05:01:54;;;;;;;;;;;14.30;99.90;;;;;;5066390;28;19984;-70
2022/06/09 05:04:21;;;;;;;;;;;14.30;99.90;;;;;;5066378;28;19921;-69
2022/06/09 05:06:47;;;;;;;;;;;14.30;99.90;;;;;;5066172;28;19928;-69
2022/06/09 05:09:15;;;;;;;;;;;14.30;99.90;;;;;;5066558;28;19952;-69
2022/06/09 05:11:42;;;;;;;;;;;14.30;99.90;;;;;;5066311;28;19920;-69
2022/06/09 05:14:12;;;;;;;;;;;14.30;99.90;;;;;;5066454;28;19993;-69
2022/06/09 05:16:38;;;;;;;;;;;14.40;99.90;;;;;;5066213;28;19920;-69
2022/06/09 05:19:05;;;;;;;;;;;14.50;99.90;;;;;;5066499;28;19925;-69
2022/06/09 05:21:32;;;;;;;;;;;14.50;99.90;;;;;;5066414;28;19952;-69
2022/06/09 05:23:59;;;;;;;;;;;14.50;99.90;;;;;;5066296;28;19952;-70
2022/06/09 05:26:25;;;;;;;;;;;14.50;99.90;;;;;;5065959;28;19921;-69
2022/06/09 05:28:52;;;;;;;;;;;14.60;99.90;;;;;;5066317;28;19955;-69
2022/06/09 05:31:20;;;;;;;;;;;14.70;99.90;;;;;;5066159;28;19959;-69
2022/06/09 05:33:47;;;;;;;;;;;14.60;99.90;;;;;;5066068;28;19952;-70
2022/06/09 05:36:14;;;;;;;;;;;14.70;99.90;;;;;;5065891;28;19921;-69
2022/06/09 05:46:55;;;;;;;;;;;14.80;99.90;;;;;;5065439;28;19928;-72
2022/06/09 05:49:22;;;;;;;;;;;14.80;99.90;;;;;;5065034;28;20228;-70
2022/06/09 05:51:49;;;;;;;;;;;14.90;99.90;;;;;;5065822;28;19964;-71
2022/06/09 05:54:16;;;;;;;;;;;15.00;99.90;;;;;;5064348;28;19956;-70
2022/06/09 05:56:42;;;;;;;;;;;15.00;99.90;;;;;;5064675;28;19968;-69
2022/06/09 05:59:09;;;;;;;;;;;15.10;99.90;;;;;;5064861;28;19928;-71
2022/06/09 06:01:36;;;;;;;;;;;15.10;99.90;;;;;;5064761;28;19980;-69
2022/06/09 06:04:05;;;;;;;;;;;15.10;99.90;;;;;;5065196;28;20124;-70
2022/06/09 06:06:34;;;;;;;;;;;15.10;99.90;;;;;;5064725;28;19959;-70
2022/06/09 06:09:01;;;;;;;;;;;15.10;99.90;;;;;;5064779;28;19921;-71
2022/06/09 06:11:28;;;;;;;;;;;15.20;99.90;;;;;;5064561;28;20164;-70
2022/06/09 06:13:55;;;;;;;;;;;15.20;99.90;;;;;;5064629;28;19966;-70
2022/06/09 06:16:22;;;;;;;;;;;15.10;99.90;;;;;;5064230;28;19932;-70
2022/06/09 06:18:48;;;;;;;;;;;15.10;99.90;;;;;;5064729;28;20111;-70
2022/06/09 06:21:16;;;;;;;;;;;15.10;99.90;;;;;;5064471;28;19953;-71
2022/06/09 06:23:43;;;;;;;;;;;15.00;99.90;;;;;;5064577;28;19935;-71
2022/06/09 06:26:10;;;;;;;;;;;15.00;99.90;;;;;;5064596;28;19955;-71
2022/06/09 06:28:37;;;;;;;;;;;15.00;99.90;;;;;;5064334;28;19937;-70
2022/06/09 06:31:04;;;;;;;;;;;15.00;99.90;;;;;;5064065;28;19952;-70
2022/06/09 06:33:30;;;;;;;;;;;15.00;99.90;;;;;;5064358;28;19924;-69
2022/06/09 06:35:57;;;;;;;;;;;15.00;99.90;;;;;;5063910;28;19929;-68
2022/06/09 06:38:25;;;;;;;;;;;15.20;99.90;;;;;;5064245;28;19992;-70
2022/06/09 06:40:54;;;;;;;;;;;15.30;99.90;;;;;;5064180;28;20219;-70
2022/06/09 06:43:21;;;;;;;;;;;15.40;99.90;;;;;;5064041;28;19992;-70
2022/06/09 06:45:48;;;;;;;;;;;15.60;99.90;;;;;;5063401;28;19928;-70
2022/06/09 06:48:15;;;;;;;;;;;15.70;99.90;;;;;;5064339;28;19967;-70
2022/06/09 06:50:42;;;;;;;;;;;15.60;99.90;;;;;;5064386;28;19920;-70
2022/06/09 06:53:12;;;;;;;;;;;15.60;99.90;;;;;;5064035;28;19955;-69
2022/06/09 06:55:40;;;;;;;;;;;15.60;99.90;;;;;;5076868;23;20215;-91
2022/06/09 06:58:07;;;;;;;;;;;15.60;99.90;;;;;;5070434;28;19965;-90
2022/06/09 07:00:34;;;;;;;;;;;15.70;99.90;;;;;;5070673;28;19931;-90
2022/06/09 07:03:01;;;;;;;;;;;15.80;99.90;;;;;;5071187;28;19987;-91
2022/06/09 07:05:28;;;;;;;;;;;15.90;99.90;;;;;;5069615;28;19932;-92
2022/06/09 07:07:56;;;;;;;;;;;16.00;99.90;;;;;;5071113;28;19921;-90
2022/06/09 07:10:23;;;;;;;;;;;16.00;99.90;;;;;;5107465;22;20207;-70
2022/06/09 07:12:51;;;;;;;;;;;16.00;99.90;;;;;;5104569;28;19927;-70
2022/06/09 07:15:18;;;;;;;;;;;16.10;99.90;;;;;;5103861;28;19927;-70
2022/06/09 07:17:45;;;;;;;;;;;16.20;99.90;;;;;;5104304;28;19927;-71
2022/06/09 07:20:13;;;;;;;;;;;16.20;99.90;;;;;;5104007;28;19986;-68
2022/06/09 07:22:39;;;;;;;;;;;16.20;99.90;;;;;;5102931;28;19951;-68
2022/06/09 07:25:07;;;;;;;;;;;16.30;99.90;;;;;;5103354;28;19920;-70
2022/06/09 07:27:34;;;;;;;;;;;16.30;99.90;;;;;;5103489;28;19995;-69
2022/06/09 07:30:02;;;;;;;;;;;16.30;99.90;;;;;;5103728;28;19920;-69
2022/06/09 07:32:29;;;;;;;;;;;16.30;99.90;;;;;;5103570;28;20175;-69
2022/06/09 07:34:55;;;;;;;;;;;16.30;99.90;;;;;;5103628;28;19920;-68
2022/06/09 07:37:22;;;;;;;;;;;16.40;99.90;;;;;;5103951;28;19947;-70
2022/06/09 07:39:49;;;;;;;;;;;16.40;99.90;;;;;;5103176;28;20263;-69
2022/06/09 07:42:16;;;;;;;;;;;16.50;99.90;;;;;;5103816;28;19920;-70
2022/06/09 07:44:43;;;;;;;;;;;16.70;99.90;;;;;;5103436;28;20104;-69
2022/06/09 07:47:11;;;;;;;;;;;16.80;99.90;;;;;;5103147;28;19920;-70
2022/06/09 07:49:38;;;;;;;;;;;16.90;99.90;;;;;;5103581;28;19920;-70
2022/06/09 07:52:05;;;;;;;;;;;16.90;99.90;;;;;;5103256;28;19979;-69
2022/06/09 07:54:31;;;;;;;;;;;17.00;99.90;;;;;;5103381;28;19928;-70
2022/06/09 07:56:58;;;;;;;;;;;17.00;99.90;;;;;;5103361;28;19960;-71
2022/06/09 07:59:25;;;;;;;;;;;16.90;99.90;;;;;;5103603;28;20234;-69
2022/06/09 08:01:52;;;;;;;;;;;16.80;99.90;;;;;;5103379;28;19920;-70
2022/06/09 08:04:20;;;;;;;;;;;16.70;99.90;;;;;;5103449;28;19921;-69
2022/06/09 08:06:46;;;;;;;;;;;16.60;99.90;;;;;;5102431;28;19959;-70
2022/06/09 08:09:13;;;;;;;;;;;16.60;99.90;;;;;;5102891;28;19920;-70
2022/06/09 08:11:40;;;;;;;;;;;16.70;99.90;;;;;;5103247;28;19959;-70
2022/06/09 08:14:08;;;;;;;;;;;16.70;99.90;;;;;;5103399;28;20157;-70
2022/06/09 08:16:34;;;;;;;;;;;16.70;99.90;;;;;;5102951;28;20115;-72
2022/06/09 08:19:01;;;;;;;;;;;16.70;99.90;;;;;;5106361;28;19991;-71
2022/06/09 08:21:29;;;;;;;;;;;16.70;99.90;;;;;;5106506;28;19991;-71
2022/06/09 08:23:56;;;;;;;;;;;16.80;99.90;;;;;;5107249;28;19951;-71
2022/06/09 08:26:23;;;;;;;;;;;16.80;99.90;;;;;;5106809;28;19951;-69
2022/06/09 08:28:49;;;;;;;;;;;16.80;99.90;;;;;;5107071;28;19968;-71
2022/06/09 08:31:16;;;;;;;;;;;16.80;99.90;;;;;;5107129;28;20114;-70
2022/06/09 08:33:43;;;;;;;;;;;16.80;99.90;;;;;;5106919;28;20159;-71
2022/06/09 08:36:10;;;;;;;;;;;16.90;99.90;;;;;;5106754;28;20152;-71
2022/06/09 08:38:38;;;;;;;;;;;17.10;99.90;;;;;;5106464;28;19951;-70
2022/06/09 08:41:17;;;;;;;;;;;17.30;99.90;;;;;;5106942;28;19999;-72
2022/06/09 08:43:46;;;;;;;;;;;17.40;99.90;;;;;;5106736;28;19920;-70
2022/06/09 08:46:23;;;;;;;;;;;17.40;99.90;;;;;;5106509;28;19920;-69
2022/06/09 08:48:50;;;;;;;;;;;17.40;99.90;;;;;;5086481;28;19991;-70
2022/06/09 08:51:21;;;;;;;;;;;17.40;99.90;;;;;;5086621;28;19983;-69
2022/06/09 08:53:50;;;;;;;;;;;17.50;99.90;;;;;;5086490;28;19921;-71
2022/06/09 08:56:21;;;;;;;;;;;17.50;99.90;;;;;;5086135;28;19921;-70
2022/06/09 08:58:49;;;;;;;;;;;17.50;99.90;;;;;;5086273;28;19927;-71
2022/06/09 09:01:22;;;;;;;;;;;17.50;99.90;;;;;;5086431;28;19966;-70
2022/06/09 09:03:50;;;;;;;;;;;17.70;99.90;;;;;;5086122;28;20119;-70
2022/06/09 09:06:21;;;;;;;;;;;17.90;99.90;;;;;;5085932;28;19955;-70
2022/06/09 09:08:49;;;;;;;;;;;17.90;99.90;;;;;;5086073;28;19956;-71
2022/06/09 09:11:28;;;;;;;;;;;17.80;99.90;;;;;;5098163;28;19920;-71
2022/06/09 09:13:59;;;;;;;;;;;17.50;99.90;;;;;;5106262;28;19920;-70
2022/06/09 09:16:31;;;;;;;;;;;17.10;99.90;;;;;;5105882;28;19940;-71
2022/06/09 09:19:03;;;;;;;;;;;17.10;99.90;;;;;;5106147;28;19946;-71
2022/06/09 09:21:48;;;;;;;;;;;17.20;99.90;;;;;;5105190;28;19920;-70
2022/06/09 09:24:21;;;;;;;;;;;17.40;99.90;;;;;;5106646;28;19926;-70
2022/06/09 09:26:51;;;;;;;;;;;17.50;99.90;;;;;;5106287;28;19955;-70
2022/06/09 09:29:22;;;;;;;;;;;17.50;99.90;;;;;;5105465;28;19943;-70
2022/06/09 09:31:51;;;;;;;;;;;17.60;99.90;;;;;;5101211;28;19959;-72
2022/06/09 09:34:19;;;;;;;;;;;17.70;99.90;;;;;;5103410;28;19928;-70
2022/06/09 09:36:48;;;;;;;;;;;17.80;99.90;;;;;;5099329;28;19920;-71
2022/06/09 09:39:17;;;;;;;;;;;17.70;99.90;;;;;;5095971;28;19956;-71
2022/06/09 09:41:45;;;;;;;;;;;17.70;99.90;;;;;;5100037;28;19955;-69
2022/06/09 09:44:16;;;;;;;;;;;17.80;99.90;;;;;;5101181;28;19955;-70
2022/06/09 09:46:47;;;;;;;;;;;17.90;99.90;;;;;;5096161;28;19920;-70
2022/06/09 09:49:22;;;;;;;;;;;17.90;99.90;;;;;;5094715;28;19983;-70
2022/06/09 09:51:49;;;;;;;;;;;17.90;99.90;;;;;;5098731;28;19983;-70
2022/06/09 09:54:20;;;;;;;;;;;17.70;99.90;;;;;;5096933;28;19920;-70
2022/06/09 09:56:48;;;;;;;;;;;17.50;99.90;;;;;;5091286;28;19920;-74
2022/06/09 09:59:23;;;;;;;;;;;17.20;99.90;;;;;;5103086;28;20157;-71
2022/06/09 10:10:09;;;;;;;;;;;16.80;99.90;;;;;;5096839;28;19959;-70
2022/06/09 10:12:37;;;;;;;;;;;16.80;99.90;;;;;;5097353;28;19956;-70
2022/06/09 10:15:05;;;;;;;;;;;16.80;99.90;;;;;;5104809;28;19958;-71
2022/06/09 10:17:37;;;;;;;;;;;16.90;99.90;;;;;;5087605;28;19958;-71
2022/06/09 10:20:16;;;;;;;;;;;17.00;99.90;;;;;;5096844;28;19927;-71
2022/06/09 10:22:44;;;;;;;;;;;17.00;99.90;;;;;;5098254;28;19927;-70
2022/06/09 10:25:20;;;;;;;;;;;17.20;99.90;;;;;;5103463;28;19927;-71
2022/06/09 10:27:50;;;;;;;;;;;17.50;99.90;;;;;;5089956;28;19927;-70
2022/06/09 10:30:18;;;;;;;;;;;17.70;99.90;;;;;;5091553;28;19947;-69
2022/06/09 10:32:48;;;;;;;;;;;17.90;99.90;;;;;;5093186;28;19920;-70
2022/06/09 10:35:16;;;;;;;;;;;18.10;99.90;;;;;;5098165;28;19958;-70
2022/06/09 10:37:46;;;;;;;;;;;18.20;99.90;;;;;;5098216;28;19921;-70
2022/06/09 10:40:16;;;;;;;;;;;18.20;99.90;;;;;;5095525;28;19948;-70
2022/06/09 10:42:46;;;;;;;;;;;18.30;99.90;;;;;;5097741;28;19955;-71
2022/06/09 10:45:27;;;;;;;;;;;18.20;99.90;;;;;;5088580;28;19995;-70
2022/06/09 10:56:17;;;;;;;;;;;17.80;99.90;;;;;;5091415;28;19923;-70
2022/06/09 10:58:46;;;;;;;;;;;17.80;99.90;;;;;;5092308;28;19920;-72
2022/06/09 11:01:19;;;;;;;;;;;17.70;99.90;;;;;;5088422;28;19920;-71
2022/06/09 11:03:48;;;;;;;;;;;17.60;99.90;;;;;;5089747;28;19959;-70
2022/06/09 11:06:21;;;;;;;;;;;17.50;99.90;;;;;;5083994;28;20243;-71
2022/06/09 11:08:55;;;;;;;;;;;17.40;99.90;;;;;;5103902;28;19954;-70
2022/06/09 11:11:28;;;;;;;;;;;17.30;99.90;;;;;;5104449;28;20017;-71
2022/06/09 11:14:02;;;;;;;;;;;17.30;99.90;;;;;;5104734;28;19920;-69
2022/06/09 11:16:35;;;;;;;;;;;17.20;99.90;;;;;;5093077;28;19953;-70
2022/06/09 11:19:11;;;;;;;;;;;17.20;99.90;;;;;;5087448;28;19980;-70
2022/06/09 11:21:42;;;;;;;;;;;17.20;99.90;;;;;;5094616;28;20176;-70
2022/06/09 11:24:16;;;;;;;;;;;17.10;99.90;;;;;;5089493;28;19920;-70
2022/06/09 11:26:48;;;;;;;;;;;16.90;99.90;;;;;;5100692;28;19955;-70
2022/06/09 11:29:24;;;;;;;;;;;16.90;99.90;;;;;;5092070;28;20009;-70
2022/06/09 11:31:58;;;;;;;;;;;16.90;99.90;;;;;;5093096;28;20183;-70
2022/06/09 11:40:36;;;;;;;;;;;16.90;99.90;;;;;;5044196;28;19955;-70
2022/06/09 11:43:20;;;;;;;;;;;16.90;99.90;;;;;;5083893;28;19966;-69
2022/06/09 11:45:48;;;;;;;;;;;17.00;99.90;;;;;;5086381;28;19959;-68
2022/06/09 11:51:22;;;;;;;;;;;17.40;99.90;;;;;;5093594;28;19915;-70
2022/06/09 11:53:50;;;;;;;;;;;17.60;99.90;;;;;;5101225;28;19947;-70
2022/06/09 11:56:33;;;;;;;;;;;17.70;99.90;;;;;;5088746;28;20231;-70
2022/06/09 11:59:21;;;;;;;;;;;17.80;99.90;;;;;;5103039;28;19927;-70
2022/06/09 12:02:02;;;;;;;;;;;18.00;99.90;;;;;;5096916;28;19962;-70
2022/06/09 12:04:41;;;;;;;;;;;18.20;99.90;;;;;;5103809;28;19965;-72
2022/06/09 12:07:23;;;;;;;;;;;18.40;99.90;;;;;;5103281;28;19920;-70
2022/06/09 12:09:58;;;;;;;;;;;18.50;99.90;;;;;;5101867;28;19927;-70
2022/06/09 12:12:30;;;;;;;;;;;18.70;99.90;;;;;;5096679;28;19920;-70
2022/06/09 12:15:14;;;;;;;;;;;18.80;99.90;;;;;;5085880;28;20234;-69
2022/06/09 12:17:53;;;;;;;;;;;18.80;99.90;;;;;;5093143;28;19921;-70
2022/06/09 12:20:26;;;;;;;;;;;18.80;99.90;;;;;;5083900;28;19920;-70
2022/06/09 12:23:01;;;;;;;;;;;18.70;99.90;;;;;;5084634;28;19920;-70
2022/06/09 12:25:33;;;;;;;;;;;18.60;99.90;;;;;;5103608;28;19920;-71
2022/06/09 12:28:00;;;;;;;;;;;18.50;99.90;;;;;;5098923;28;19983;-70
2022/06/09 12:30:32;;;;;;;;;;;18.50;99.90;;;;;;5101963;28;20245;-70
2022/06/09 12:33:17;;;;;;;;;;;18.50;99.90;;;;;;5083291;28;19921;-69
2022/06/09 12:35:48;;;;;;;;;;;18.50;99.90;;;;;;5093935;28;20111;-70
2022/06/09 12:38:21;;;;;;;;;;;18.50;99.90;;;;;;5103670;28;19990;-71
2022/06/09 12:40:51;;;;;;;;;;;18.60;99.90;;;;;;5103872;28;20007;-70
2022/06/09 12:43:30;;;;;;;;;;;18.70;99.90;;;;;;5102878;28;19958;-70
2022/06/09 12:46:20;;;;;;;;;;;19.00;99.90;;;;;;5102866;28;19951;-76
2022/06/09 12:48:47;;;;;;;;;;;19.40;99.90;;;;;;5103420;28;20204;-70
2022/06/09 12:51:18;;;;;;;;;;;19.70;99.90;;;;;;5091478;28;19959;-70
2022/06/09 12:53:51;;;;;;;;;;;19.90;99.90;;;;;;5086265;28;19951;-70
2022/06/09 12:56:23;;;;;;;;;;;19.90;99.90;;;;;;5103335;28;19928;-70
2022/06/09 12:58:50;;;;;;;;;;;19.70;99.90;;;;;;5103471;28;19965;-70
2022/06/09 13:01:18;;;;;;;;;;;19.50;99.90;;;;;;5103786;28;19920;-70
2022/06/09 13:03:50;;;;;;;;;;;19.30;99.90;;;;;;5104737;28;20179;-70
2022/06/09 13:06:26;;;;;;;;;;;19.00;99.90;;;;;;5107280;28;19920;-71
2022/06/09 13:08:54;;;;;;;;;;;18.70;99.90;;;;;;5105781;28;19920;-71
2022/06/09 13:12:50;;;;;;;;;;;18.60;99.90;;;;;;5107216;28;19947;-71
2022/06/09 13:14:12;;;;;;;;;;;18.50;99.90;;;;;;5106678;28;20096;-71
2022/06/09 13:16:42;;;;;;;;;;;18.40;99.90;;;;;;5106579;28;19981;-71
2022/06/09 13:19:11;;;;;;;;;;;18.30;99.90;;;;;;5107250;28;19979;-70
2022/06/09 13:21:39;;;;;;;;;;;18.20;99.90;;;;;;5106805;28;20190;-70
2022/06/09 13:24:08;;;;;;;;;;;17.90;99.90;;;;;;5100971;28;19966;-70
2022/06/09 13:26:39;;;;;;;;;;;17.60;99.90;;;;;;5085670;28;19971;-70
2022/06/09 13:29:07;;;;;;;;;;;17.50;99.90;;;;;;5102816;28;19963;-70
2022/06/09 13:31:38;;;;;;;;;;;17.50;99.90;;;;;;5105688;28;19924;-71
2022/06/09 13:34:06;;;;;;;;;;;17.50;99.90;;;;;;5103029;28;19959;-70
2022/06/09 13:36:34;;;;;;;;;;;17.50;99.90;;;;;;5086560;28;19927;-70
2022/06/09 13:39:15;;;;;;;;;;;17.40;99.90;;;;;;5106137;28;20275;-70
2022/06/09 13:41:43;;;;;;;;;;;17.30;99.90;;;;;;5103773;28;19963;-72
2022/06/09 13:44:14;;;;;;;;;;;17.00;99.90;;;;;;5091792;28;19920;-71
2022/06/09 13:46:57;;;;;;;;;;;16.80;99.90;;;;;;5098573;28;19952;-70
2022/06/09 13:49:25;;;;;;;;;;;16.60;99.90;;;;;;5106022;28;19967;-70
2022/06/09 13:52:00;;;;;;;;;;;16.40;99.90;;;;;;5102389;28;20262;-71
2022/06/09 13:54:28;;;;;;;;;;;16.50;99.90;;;;;;5103793;28;19927;-72
2022/06/09 13:56:56;;;;;;;;;;;16.40;99.90;;;;;;5085987;28;19921;-70
2022/06/09 13:59:23;;;;;;;;;;;16.50;99.90;;;;;;5086485;28;19951;-70
2022/06/09 14:01:52;;;;;;;;;;;16.60;99.90;;;;;;5085483;28;19987;-70
2022/06/09 14:04:20;;;;;;;;;;;16.50;99.90;;;;;;5098297;28;20084;-71
2022/06/09 14:06:47;;;;;;;;;;;16.60;99.90;;;;;;5104897;28;19943;-71
2022/06/09 14:09:15;;;;;;;;;;;16.70;99.90;;;;;;5096535;28;19927;-70
2022/06/09 14:11:42;;;;;;;;;;;16.80;99.90;;;;;;5091851;28;19920;-70
2022/06/09 14:14:10;;;;;;;;;;;17.00;99.90;;;;;;5105454;28;20055;-70
2022/06/09 14:16:37;;;;;;;;;;;17.00;99.90;;;;;;5104593;28;19920;-70
2022/06/09 14:19:05;;;;;;;;;;;17.10;99.90;;;;;;5105444;28;19920;-70
2022/06/09 14:21:32;;;;;;;;;;;17.20;99.90;;;;;;5105699;28;19983;-70
2022/06/09 14:24:03;;;;;;;;;;;17.30;99.90;;;;;;5103976;28;20265;-70
2022/06/09 14:26:34;;;;;;;;;;;17.40;99.90;;;;;;5104994;28;19987;-70
2022/06/09 14:29:01;;;;;;;;;;;17.40;99.90;;;;;;5092910;28;19951;-70
2022/06/09 14:31:29;;;;;;;;;;;17.50;99.90;;;;;;5093452;28;19948;-70
2022/06/09 14:33:56;;;;;;;;;;;17.60;99.90;;;;;;5096997;28;20153;-70
2022/06/09 14:36:26;;;;;;;;;;;17.70;99.90;;;;;;5100211;28;19951;-70
2022/06/09 14:38:53;;;;;;;;;;;17.90;99.90;;;;;;5101586;28;19983;-69
2022/06/09 14:41:20;;;;;;;;;;;18.00;99.90;;;;;;5089886;28;19920;-70
2022/06/09 14:43:47;;;;;;;;;;;18.10;99.90;;;;;;5097812;28;19927;-69
2022/06/09 14:46:16;;;;;;;;;;;18.30;99.90;;;;;;5098003;28;19955;-71
2022/06/09 14:48:50;;;;;;;;;;;18.50;99.90;;;;;;5099362;28;19946;-70
2022/06/09 14:51:17;;;;;;;;;;;18.80;99.90;;;;;;5093238;28;19928;-70
2022/06/09 14:53:44;;;;;;;;;;;19.00;99.90;;;;;;5096027;28;19932;-70
2022/06/09 14:56:12;;;;;;;;;;;19.20;99.90;;;;;;5095788;28;19927;-70
2022/06/09 14:58:39;;;;;;;;;;;19.30;99.90;;;;;;5085611;28;19927;-70
2022/06/09 15:01:06;;;;;;;;;;;19.30;99.90;;;;;;5091414;28;19927;-70